Time;durP1;ratioP1;P1;durP2;ratioP2;P2;SDS_P1;SDS_P2;PMS_P1;PMS_P2;Temp;Humidity;BMP_temperature;BMP_pressure;BME280_temperature;BME280_humidity;BME280_pressure;Samples;Min_cycle;Max_cycle;Signal;HPM_P1;HPM_P2
2023/04/12 00:02:05;;;;;;;2.45;1.62;;;;;;;8.48;59.65;99222.56;4483875;32;20124;-91
2023/04/12 00:04:33;;;;;;;3.10;1.70;;;;;;;8.42;59.64;99212.38;4470280;32;20141;-91
2023/04/12 00:06:59;;;;;;;4.07;1.98;;;;;;;8.42;59.64;99206.34;4474793;31;20107;-92
2023/04/12 00:09:29;;;;;;;4.20;1.58;;;;;;;8.39;59.65;99209.91;4470921;32;20167;-91
2023/04/12 00:11:57;;;;;;;4.37;1.80;;;;;;;8.35;59.64;99217.81;4459798;32;20073;-92
2023/04/12 00:14:25;;;;;;;6.80;2.00;;;;;;;8.35;59.64;99213.50;4459139;32;20160;-93
2023/04/12 00:16:51;;;;;;;2.90;1.77;;;;;;;8.22;59.64;99210.38;4459456;32;20109;-92
2023/04/12 00:19:16;;;;;;;4.22;2.20;;;;;;;8.26;59.64;99201.59;4469311;32;20382;-90
2023/04/12 00:21:42;;;;;;;3.35;2.00;;;;;;;8.06;59.62;99214.38;4457663;32;20894;-91
2023/04/12 00:24:08;;;;;;;2.42;1.67;;;;;;;8.12;59.63;99232.31;4484687;31;20500;-92
2023/04/12 00:26:33;;;;;;;3.65;2.33;;;;;;;8.25;59.64;99223.25;4470462;32;20185;-92
2023/04/12 00:28:59;;;;;;;3.47;1.95;;;;;;;8.19;59.63;99227.78;4456865;32;21696;-91
2023/04/12 00:31:24;;;;;;;3.37;2.05;;;;;;;8.22;59.63;99227.69;4483743;32;20100;-91
2023/04/12 00:33:49;;;;;;;3.10;1.62;;;;;;;8.23;59.64;99219.00;4470140;32;23340;-93
2023/04/12 00:36:15;;;;;;;3.17;1.83;;;;;;;8.19;59.63;99228.63;4483594;31;20160;-92
2023/04/12 00:38:41;;;;;;;5.65;2.40;;;;;;;8.16;59.63;99201.97;4468943;32;20155;-92
2023/04/12 00:41:07;;;;;;;2.87;1.98;;;;;;;8.12;59.63;99206.41;4463632;32;20472;-92
2023/04/12 00:43:32;;;;;;;3.42;1.95;;;;;;;7.94;59.62;99206.94;4469821;32;20105;-91
2023/04/12 00:45:58;;;;;;;4.90;2.50;;;;;;;7.99;59.63;99199.88;4479215;31;20492;-91
2023/04/12 00:48:23;;;;;;;3.22;2.20;;;;;;;7.88;59.62;99199.34;4459927;32;20164;-90
2023/04/12 00:50:49;;;;;;;6.70;2.30;;;;;;;7.67;59.60;99201.69;4463532;32;20120;-94
2023/04/12 00:53:14;;;;;;;3.72;2.12;;;;;;;7.79;59.61;99202.19;4471429;32;20115;-95
2023/04/12 00:55:41;;;;;;;4.43;2.30;;;;;;;7.76;59.61;99197.12;4457965;32;20148;-92
2023/04/12 00:58:07;;;;;;;6.15;2.50;;;;;;;7.72;59.61;99204.12;4460550;31;20080;-92
2023/04/12 01:00:33;;;;;;;7.50;2.45;;;;;;;7.82;59.61;99207.31;4470194;32;20159;-91
2023/04/12 01:03:01;;;;;;;4.60;2.47;;;;;;;7.95;59.62;99200.87;4468233;31;20124;-92
2023/04/12 01:05:26;;;;;;;3.90;2.67;;;;;;;7.80;59.61;99198.72;4473938;31;20168;-93
2023/04/12 01:07:54;;;;;;;3.53;1.90;;;;;;;7.79;59.61;99192.69;4469501;32;20110;-93
2023/04/12 01:10:30;;;;;;;5.10;2.33;;;;;;;7.73;59.61;99197.22;4483617;32;20108;-92
2023/04/12 01:13:07;;;;;;;3.33;2.17;;;;;;;7.82;59.62;99187.44;4480759;32;20156;-91
2023/04/12 01:15:33;;;;;;;4.32;2.28;;;;;;;7.87;59.62;99195.91;4483140;32;20127;-90
2023/04/12 01:18:08;;;;;;;4.65;2.28;;;;;;;7.85;59.62;99194.28;4457407;32;20088;-91
2023/04/12 01:20:43;;;;;;;3.87;2.45;;;;;;;7.85;59.62;99196.88;4461258;31;20110;-96
2023/04/12 01:23:23;;;;;;;4.45;2.17;;;;;;;7.90;59.61;99197.56;4472660;31;20121;-94
2023/04/12 01:26:01;;;;;;;4.22;2.30;;;;;;;7.78;59.62;99209.13;4462591;32;20122;-95
2023/04/12 01:28:31;;;;;;;3.72;2.30;;;;;;;7.73;59.61;99208.41;4487121;31;20088;-93
2023/04/12 01:30:56;;;;;;;8.18;2.33;;;;;;;7.79;59.61;99205.66;4463760;32;20096;-91
2023/04/12 01:33:22;;;;;;;5.53;2.25;;;;;;;7.70;59.61;99204.19;4472205;31;23685;-91
2023/04/12 01:35:47;;;;;;;8.45;2.17;;;;;;;7.65;59.60;99205.22;4463409;32;22883;-90
2023/04/12 01:38:13;;;;;;;4.50;2.42;;;;;;;7.69;59.60;99201.63;4474109;31;23506;-92
2023/04/12 01:40:41;;;;;;;4.28;2.35;;;;;;;7.65;59.60;99198.28;4473096;32;26820;-91
2023/04/12 01:43:10;;;;;;;4.22;2.28;;;;;;;7.67;59.60;99199.09;4485622;31;20088;-91
2023/04/12 01:45:36;;;;;;;3.05;2.10;;;;;;;7.67;59.60;99195.66;4480689;31;20164;-92
2023/04/12 01:48:02;;;;;;;7.72;1.98;;;;;;;7.55;59.60;99190.81;4485193;31;20080;-90
2023/04/12 01:50:51;;;;;;;3.70;2.15;;;;;;;7.38;59.59;99201.66;4472192;32;20119;-91
2023/04/12 01:53:22;;;;;;;4.68;2.30;;;;;;;7.50;59.60;99205.63;4485572;32;20093;-92
2023/04/12 01:55:47;;;;;;;5.82;2.55;;;;;;;7.55;59.60;99211.53;4459086;32;20505;-90
2023/04/12 01:58:19;;;;;;;3.42;2.28;;;;;;;7.43;59.60;99207.56;4482841;32;20128;-92
2023/04/12 02:00:45;;;;;;;3.62;2.55;;;;;;;7.27;59.58;99209.72;4467269;31;20462;-91
2023/04/12 02:03:11;;;;;;;8.60;2.60;;;;;;;7.28;59.58;99202.78;4458683;32;20160;-90
2023/04/12 02:05:36;;;;;;;6.15;2.92;;;;;;;7.15;59.57;99196.28;4481611;31;20432;-91
2023/04/12 02:08:02;;;;;;;4.85;2.30;;;;;;;7.15;59.57;99198.84;4485049;31;20481;-90
2023/04/12 02:10:31;;;;;;;5.37;2.33;;;;;;;7.30;59.58;99196.69;4468953;31;20083;-91
2023/04/12 02:13:00;;;;;;;6.00;2.05;;;;;;;7.15;59.57;99197.12;4484727;31;20509;-89
2023/04/12 02:15:28;;;;;;;4.65;2.37;;;;;;;7.26;59.58;99191.63;4479823;31;20127;-91
2023/04/12 02:17:54;;;;;;;4.68;2.55;;;;;;;7.29;59.59;99199.31;4481582;32;20111;-90
2023/04/12 02:20:20;;;;;;;3.90;2.30;;;;;;;7.12;59.58;99193.75;4466725;31;20128;-91
2023/04/12 02:22:46;;;;;;;3.72;2.30;;;;;;;7.08;59.57;99187.78;4477062;31;20442;-91
2023/04/12 02:25:12;;;;;;;6.47;3.33;;;;;;;7.07;59.57;99201.63;4489027;31;20104;-89
2023/04/12 02:27:37;;;;;;;5.60;3.10;;;;;;;7.16;59.57;99201.41;4484472;32;20088;-91
2023/04/12 02:30:04;;;;;;;5.28;3.08;;;;;;;7.24;59.58;99196.00;4468341;31;20523;-89
2023/04/12 02:32:29;;;;;;;5.20;3.35;;;;;;;7.27;59.58;99209.72;4474772;32;20112;-91
2023/04/12 02:34:57;;;;;;;5.53;3.20;;;;;;;7.34;59.59;99206.09;4479462;31;20448;-90
2023/04/12 02:37:26;;;;;;;6.45;3.00;;;;;;;7.23;59.57;99205.50;4461741;32;20092;-90
2023/04/12 02:39:52;;;;;;;10.88;3.25;;;;;;;7.09;59.58;99208.47;4470461;31;20766;-91
2023/04/12 02:42:18;;;;;;;7.05;3.95;;;;;;;7.23;59.58;99202.06;4484694;32;20093;-93
2023/04/12 02:44:46;;;;;;;6.10;3.62;;;;;;;7.17;59.57;99207.44;4468917;31;20476;-90
2023/04/12 02:47:12;;;;;;;7.40;3.67;;;;;;;7.21;59.57;99206.44;4472586;32;20092;-91
2023/04/12 02:49:37;;;;;;;7.78;4.50;;;;;;;7.21;59.58;99196.09;4470223;31;20466;-94
2023/04/12 02:52:03;;;;;;;6.80;4.20;;;;;;;7.15;59.58;99193.69;4459459;32;20139;-93
2023/04/12 02:54:28;;;;;;;6.35;4.07;;;;;;;7.16;59.57;99193.63;4469783;31;20138;-93
2023/04/12 02:56:54;;;;;;;5.97;3.22;;;;;;;7.29;59.58;99178.59;4476600;31;20083;-96
2023/04/12 02:59:24;;;;;;;6.00;3.58;;;;;;;7.20;59.58;99184.03;4476580;31;20127;-96
2023/04/12 03:01:49;;;;;;;;;;;;;;;7.17;59.57;99181.53;4485024;31;20103;-96
2023/04/12 03:04:15;;;;;;;5.03;3.20;;;;;;;7.15;59.57;99188.50;4479351;31;19999;-93
2023/04/12 03:06:51;;;;;;;6.57;2.87;;;;;;;7.04;59.57;99181.00;4468338;32;20137;-91
2023/04/12 03:09:16;;;;;;;10.18;4.35;;;;;;;7.08;59.57;99185.22;4474220;31;20118;-90
2023/04/12 03:11:42;;;;;;;6.00;3.50;;;;;;;7.09;59.57;99181.72;4458238;32;20457;-90
2023/04/12 03:14:07;;;;;;;9.25;4.30;;;;;;;7.26;59.58;99178.69;4468716;31;20148;-92
2023/04/12 03:16:34;;;;;;;6.12;3.50;;;;;;;7.28;59.58;99174.31;4464995;31;20183;-91
2023/04/12 03:18:59;;;;;;;7.32;3.60;;;;;;;7.11;59.58;99172.22;4485021;31;20096;-90
2023/04/12 03:21:27;;;;;;;7.68;3.80;;;;;;;7.13;59.57;99173.03;4479514;31;20155;-92
2023/04/12 03:23:52;;;;;;;12.95;3.60;;;;;;;7.14;59.57;99166.94;4489988;31;20112;-91
2023/04/12 03:26:19;;;;;;;6.60;3.40;;;;;;;7.12;59.58;99173.06;4474322;31;20135;-91
2023/04/12 03:28:47;;;;;;;7.05;3.97;;;;;;;7.17;59.58;99171.19;4478163;31;20089;-95
2023/04/12 03:31:13;;;;;;;7.82;4.47;;;;;;;6.99;59.57;99163.03;4473772;32;20100;-93
2023/04/12 03:33:38;;;;;;;7.55;4.22;;;;;;;6.98;59.57;99163.91;4471845;31;23546;-94
2023/04/12 03:36:04;;;;;;;6.53;3.87;;;;;;;7.03;59.57;99156.03;4468627;32;20093;-94
2023/04/12 03:38:30;;;;;;;7.55;3.50;;;;;;;7.02;59.57;99149.16;4460065;31;20100;-94
2023/04/12 03:40:55;;;;;;;6.12;3.70;;;;;;;6.96;59.57;99157.94;4459963;32;20112;-94
2023/04/12 03:43:21;;;;;;;6.78;3.65;;;;;;;6.91;59.56;99154.63;4460154;32;20469;-95
2023/04/12 03:45:46;;;;;;;4.85;3.15;;;;;;;6.96;59.57;99142.41;4465583;32;20156;-96
2023/04/12 03:48:12;;;;;;;8.43;3.95;;;;;;;6.70;59.55;99148.28;4470598;31;20116;-95
2023/04/12 03:50:43;;;;;;;6.43;3.33;;;;;;;6.53;59.54;99154.75;4460429;32;20119;-94
2023/04/12 03:53:09;;;;;;;7.70;3.55;;;;;;;6.57;59.54;99154.63;4464046;31;20135;-95
2023/04/12 03:55:36;;;;;;;6.07;3.25;;;;;;;6.59;59.55;99142.53;4471659;31;20093;-92
2023/04/12 03:58:02;;;;;;;5.68;3.12;;;;;;;6.58;59.55;99143.41;4485241;31;20114;-91
2023/04/12 04:00:28;;;;;;;5.28;3.33;;;;;;;6.52;59.54;99147.91;4472480;32;20159;-93
2023/04/12 04:02:53;;;;;;;10.23;3.70;;;;;;;6.46;59.54;99148.91;4469767;32;20449;-93
2023/04/12 04:05:19;;;;;;;8.23;4.18;;;;;;;6.45;59.54;99145.47;4463823;32;20159;-90
2023/04/12 04:07:44;;;;;;;5.62;3.45;;;;;;;6.47;59.54;99150.59;4494302;31;20104;-90
2023/04/12 04:10:10;;;;;;;7.35;3.87;;;;;;;6.68;59.56;99154.37;4470868;32;20600;-92
2023/04/12 04:12:35;;;;;;;7.00;3.58;;;;;;;6.60;59.55;99148.53;4468832;31;20443;-90
2023/04/12 04:15:00;;;;;;;6.18;3.50;;;;;;;6.57;59.54;99151.22;4463090;32;20614;-92
2023/04/12 04:17:26;;;;;;;7.53;3.80;;;;;;;6.67;59.55;99153.53;4459218;32;20128;-92
2023/04/12 04:19:51;;;;;;;5.57;3.10;;;;;;;6.73;59.56;99153.38;4463500;32;20902;-92
2023/04/12 04:22:20;;;;;;;5.62;3.47;;;;;;;6.75;59.55;99161.09;4480195;31;20181;-95
2023/04/12 04:24:47;;;;;;;4.85;3.33;;;;;;;6.71;59.55;99147.37;4466770;32;20836;-90
2023/04/12 04:27:14;;;;;;;5.57;3.25;;;;;;;6.99;59.57;99146.66;4472872;31;20108;-93
2023/04/12 04:29:44;;;;;;;8.32;3.85;;;;;;;6.93;59.56;99142.50;4467115;31;20151;-92
2023/04/12 04:32:10;;;;;;;6.62;3.72;;;;;;;6.97;59.57;99144.09;4471624;32;20105;-92
2023/04/12 04:34:35;;;;;;;8.98;4.10;;;;;;;7.03;59.57;99143.94;4465658;32;20118;-92
2023/04/12 04:37:01;;;;;;;8.70;3.90;;;;;;;7.03;59.58;99148.25;4458257;32;20108;-92
2023/04/12 04:39:27;;;;;;;7.55;3.25;;;;;;;7.21;59.58;99141.75;4458370;32;20140;-93
2023/04/12 04:41:53;;;;;;;5.30;3.10;;;;;;;7.19;59.59;99138.34;4471107;31;20115;-93
2023/04/12 04:44:19;;;;;;;7.85;3.62;;;;;;;7.09;59.57;99142.91;4473587;31;20147;-92
2023/04/12 04:46:44;;;;;;;7.00;3.40;;;;;;;7.32;59.58;99137.09;4471237;32;20422;-93
2023/04/12 04:49:09;;;;;;;6.90;3.33;;;;;;;7.39;59.58;99136.91;4471665;32;20120;-94
2023/04/12 04:51:35;;;;;;;6.87;3.40;;;;;;;7.34;59.59;99136.19;4481742;31;20147;-93
2023/04/12 04:54:01;;;;;;;7.10;3.30;;;;;;;7.56;59.60;99138.97;4463546;32;20093;-93
2023/04/12 04:56:26;;;;;;;4.80;3.17;;;;;;;7.55;59.60;99134.69;4468882;31;20111;-94
2023/04/12 04:58:52;;;;;;;5.55;3.37;;;;;;;7.39;59.58;99133.47;4464127;31;20155;-94
2023/04/12 05:01:17;;;;;;;6.37;3.90;;;;;;;7.44;59.60;99130.72;4458375;32;20463;-94
2023/04/12 05:03:43;;;;;;;5.97;3.72;;;;;;;7.50;59.60;99135.72;4459204;32;20108;-92
2023/04/12 05:06:10;;;;;;;4.65;2.85;;;;;;;7.60;59.60;99135.41;4459992;32;20437;-91
2023/04/12 05:08:35;;;;;;;8.70;3.72;;;;;;;7.72;59.61;99134.19;4459880;32;20104;-92
2023/04/12 05:11:01;;;;;;;10.13;5.95;;;;;;;7.78;59.62;99136.59;4483464;32;20126;-92
2023/04/12 05:13:26;;;;;;;5.22;3.40;;;;;;;7.63;59.61;99143.09;4489312;31;20407;-93
2023/04/12 05:15:52;;;;;;;4.45;2.87;;;;;;;7.81;59.61;99149.47;4473719;32;20106;-89
2023/04/12 05:18:17;;;;;;;5.18;3.10;;;;;;;7.88;59.62;99139.75;4462874;32;20163;-91
2023/04/12 05:20:43;;;;;;;9.32;3.40;;;;;;;8.13;59.63;99138.09;4472142;32;20092;-91
2023/04/12 05:23:08;;;;;;;4.28;2.78;;;;;;;8.00;59.63;99134.19;4463067;32;20084;-91
2023/04/12 05:25:34;;;;;;;5.70;3.15;;;;;;;8.11;59.63;99142.47;4464044;31;20138;-91
2023/04/12 05:28:00;;;;;;;7.57;3.97;;;;;;;8.30;59.63;99140.16;4491646;31;20100;-92
2023/04/12 05:30:25;;;;;;;5.15;2.58;;;;;;;8.18;59.63;99143.97;4491131;31;20139;-92
2023/04/12 05:32:51;;;;;;;4.72;3.05;;;;;;;8.11;59.63;99139.91;4495954;31;20088;-92
2023/04/12 05:35:16;;;;;;;7.93;3.22;;;;;;;8.24;59.64;99141.19;4474673;32;20088;-90
2023/04/12 05:37:41;;;;;;;4.45;2.53;;;;;;;8.26;59.64;99141.13;4490356;32;20088;-90
2023/04/12 05:40:08;;;;;;;8.38;3.40;;;;;;;8.22;59.64;99140.37;4483586;32;20154;-92
2023/04/12 05:42:35;;;;;;;9.68;3.53;;;;;;;8.32;59.64;99140.94;4476491;31;20084;-92
2023/04/12 05:45:02;;;;;;;5.30;3.03;;;;;;;8.25;59.64;99149.81;4464002;32;20088;-92
2023/04/12 05:47:28;;;;;;;7.15;2.80;;;;;;;8.27;59.64;99137.63;4488957;32;20069;-90
2023/04/12 05:49:54;;;;;;;4.80;2.80;;;;;;;8.36;59.64;99136.53;4477450;31;20115;-92
2023/04/12 05:52:20;;;;;;;6.87;3.03;;;;;;;8.29;59.63;99130.69;4477801;32;20092;-92
2023/04/12 05:54:46;;;;;;;4.75;2.42;;;;;;;8.34;59.64;99136.59;4475744;31;25849;-91
2023/04/12 05:57:11;;;;;;;5.45;2.80;;;;;;;8.41;59.64;99140.66;4493768;31;20112;-90
2023/04/12 05:59:37;;;;;;;3.80;2.87;;;;;;;8.41;59.64;99132.91;4472431;31;20167;-91
2023/04/12 06:02:02;;;;;;;7.07;3.17;;;;;;;8.48;59.65;99130.94;4466657;32;20103;-91
2023/04/12 06:04:28;;;;;;;4.37;2.97;;;;;;;8.46;59.65;99131.00;4462255;31;20481;-92
2023/04/12 06:06:55;;;;;;;6.28;3.00;;;;;;;8.74;59.66;99130.03;4463936;32;20130;-92
2023/04/12 06:09:20;;;;;;;4.87;2.80;;;;;;;8.77;59.67;99124.78;4483332;31;20433;-93
2023/04/12 06:11:45;;;;;;;6.05;2.87;;;;;;;8.71;59.66;99127.56;4459583;32;20088;-92
2023/04/12 06:14:11;;;;;;;5.62;3.20;;;;;;;8.79;59.66;99118.63;4471334;31;21778;-89
2023/04/12 06:16:36;;;;;;;5.28;3.03;;;;;;;8.91;59.68;99125.13;4486030;31;20399;-92
2023/04/12 06:19:02;;;;;;;4.60;2.50;;;;;;;8.82;59.67;99134.09;4472058;31;20153;-91
2023/04/12 06:21:27;;;;;;;4.62;2.53;;;;;;;8.85;59.67;99140.94;4466592;32;20092;-92
2023/04/12 06:23:53;;;;;;;6.80;2.70;;;;;;;8.73;59.66;99124.00;4458596;31;20160;-91
2023/04/12 06:26:18;;;;;;;4.35;2.50;;;;;;;8.83;59.67;99127.16;4484016;32;22912;-90
2023/04/12 06:28:44;;;;;;;6.40;3.03;;;;;;;8.71;59.66;99131.00;4485608;31;20084;-91
2023/04/12 06:31:09;;;;;;;3.90;2.35;;;;;;;8.77;59.67;99130.81;4471329;32;20096;-92
2023/04/12 06:33:35;;;;;;;4.93;2.62;;;;;;;8.89;59.68;99130.38;4471259;31;20140;-91
2023/04/12 06:36:01;;;;;;;4.95;3.08;;;;;;;9.07;59.68;99143.62;4471226;31;20164;-91
2023/04/12 06:38:26;;;;;;;6.05;2.95;;;;;;;9.22;59.69;99135.25;4467258;31;20207;-92
2023/04/12 06:40:52;;;;;;;5.60;2.72;;;;;;;9.37;59.70;99128.66;4482972;31;20084;-91
2023/04/12 06:43:21;;;;;;;4.75;2.65;;;;;;;9.63;59.71;99136.31;4474325;31;20092;-91
2023/04/12 06:45:48;;;;;;;5.22;3.03;;;;;;;9.67;59.72;99137.91;4471913;32;20100;-92
2023/04/12 06:48:14;;;;;;;6.65;3.15;;;;;;;9.74;59.72;99135.94;4471650;31;20096;-91
2023/04/12 06:50:39;;;;;;;5.65;3.05;;;;;;;9.76;59.72;99140.16;4479627;32;20141;-92
2023/04/12 06:53:05;;;;;;;6.22;2.83;;;;;;;9.91;59.73;99128.31;4468544;31;20092;-92
2023/04/12 06:55:30;;;;;;;5.10;2.80;;;;;;;10.02;59.73;99140.91;4465570;31;27510;-92
2023/04/12 06:57:56;;;;;;;5.55;3.05;;;;;;;9.99;59.73;99133.22;4487230;31;20141;-90
2023/04/12 07:00:21;;;;;;;4.37;2.58;;;;;;;10.06;59.74;99135.53;4471824;32;20116;-92
2023/04/12 07:02:47;;;;;;;6.85;3.00;;;;;;;10.33;59.76;99137.94;4474066;31;20147;-92
2023/04/12 07:05:12;;;;;;;3.58;2.55;;;;;;;10.63;59.77;99141.88;4467092;32;20100;-91
2023/04/12 07:07:38;;;;;;;4.37;2.47;;;;;;;10.72;59.77;99136.31;4495667;31;20116;-91
2023/04/12 07:10:04;;;;;;;6.18;2.67;;;;;;;10.66;59.77;99133.97;4460729;32;20120;-91
2023/04/12 07:12:29;;;;;;;6.07;3.10;;;;;;;10.93;59.79;99133.69;4475383;31;20096;-91
2023/04/12 07:14:55;;;;;;;7.05;3.12;;;;;;;11.08;59.80;99141.66;4487975;32;20503;-91
2023/04/12 07:17:20;;;;;;;4.30;2.60;;;;;;;11.04;59.79;99142.72;4495845;31;20562;-91
2023/04/12 07:19:47;;;;;;;3.22;2.62;;;;;;;11.01;59.79;99131.59;4484610;32;20150;-90
2023/04/12 07:22:13;;;;;;;5.28;2.78;;;;;;;10.95;59.79;99132.72;4485404;31;20072;-92
2023/04/12 07:24:38;;;;;;;4.55;2.65;;;;;;;10.88;59.78;99130.41;4483759;32;20132;-93
2023/04/12 07:27:04;;;;;;;3.08;2.22;;;;;;;10.99;59.79;99123.84;4470490;31;20466;-92
2023/04/12 07:29:29;;;;;;;6.05;2.50;;;;;;;11.05;59.79;99113.16;4464993;31;20139;-92
2023/04/12 07:31:54;;;;;;;4.03;2.62;;;;;;;10.99;59.79;99115.19;4461226;31;20140;-91
2023/04/12 07:34:20;;;;;;;4.40;2.12;;;;;;;10.96;59.79;99103.16;4475846;32;20153;-92
2023/04/12 07:36:45;;;;;;;3.60;2.47;;;;;;;11.07;59.79;99107.88;4457805;31;20132;-89
2023/04/12 07:39:11;;;;;;;4.32;2.90;;;;;;;11.16;59.80;99099.69;4478555;31;20154;-92
2023/04/12 07:41:37;;;;;;;4.03;2.03;;;;;;;11.12;59.79;99103.34;4471218;31;20092;-91
2023/04/12 07:44:03;;;;;;;8.52;2.60;;;;;;;11.14;59.79;99105.88;4484001;32;20115;-92
2023/04/12 07:46:29;;;;;;;5.75;2.50;;;;;;;11.10;59.80;99107.75;4460307;31;20542;-91
2023/04/12 07:48:54;;;;;;;5.47;2.45;;;;;;;11.28;59.80;99103.47;4478741;32;20503;-92
2023/04/12 07:51:20;;;;;;;10.82;2.83;;;;;;;11.49;59.82;99104.25;4460042;31;26299;-93
2023/04/12 07:53:47;;;;;;;4.28;2.15;;;;;;;11.49;59.81;99101.66;4457855;32;20120;-91
2023/04/12 07:56:13;;;;;;;5.78;2.08;;;;;;;11.48;59.82;99094.75;4494514;31;20468;-92
2023/04/12 07:58:38;;;;;;;6.53;2.45;;;;;;;11.69;59.83;99093.75;4484380;32;20076;-94
2023/04/12 08:01:04;;;;;;;6.90;2.30;;;;;;;11.70;59.83;99087.63;4468217;31;20107;-92
2023/04/12 08:03:30;;;;;;;3.15;1.70;;;;;;;11.60;59.83;99082.03;4471077;32;20131;-92
2023/04/12 08:05:55;;;;;;;5.55;2.62;;;;;;;11.61;59.83;99088.06;4470965;31;20485;-92
2023/04/12 08:08:21;;;;;;;4.47;2.15;;;;;;;11.89;59.84;99083.28;4465088;31;20172;-93
2023/04/12 08:10:47;;;;;;;2.35;1.52;;;;;;;11.98;59.85;99090.66;4473653;31;20134;-92
2023/04/12 08:13:12;;;;;;;5.90;2.40;;;;;;;12.09;59.85;99086.69;4470817;32;20112;-92
2023/04/12 08:15:38;;;;;;;3.60;2.03;;;;;;;12.07;59.85;99091.12;4461082;31;20128;-91
2023/04/12 08:18:03;;;;;;;3.62;1.70;;;;;;;12.08;59.85;99100.66;4464849;31;20148;-92
2023/04/12 08:20:29;;;;;;;4.15;1.70;;;;;;;12.14;59.85;99103.78;4470926;31;20168;-91
2023/04/12 08:22:54;;;;;;;3.85;2.00;;;;;;;12.25;59.85;99108.47;4464660;31;20112;-92
2023/04/12 08:25:20;;;;;;;2.22;1.45;;;;;;;12.47;59.87;99109.13;4470827;31;20175;-93
2023/04/12 08:27:45;;;;;;;4.00;1.70;;;;;;;12.50;59.87;99108.09;4458282;32;20103;-92
2023/04/12 08:30:11;;;;;;;2.67;1.75;;;;;;;12.46;59.87;99102.19;4467597;31;20159;-92
2023/04/12 08:32:37;;;;;;;4.05;1.50;;;;;;;12.69;59.89;99103.66;4458984;32;20158;-93
2023/04/12 08:35:03;;;;;;;3.10;1.62;;;;;;;12.95;59.90;99109.31;4467810;32;20489;-92
2023/04/12 08:37:29;;;;;;;6.22;1.40;;;;;;;13.14;59.91;99099.59;4460469;32;20064;-92
2023/04/12 08:39:54;;;;;;;2.53;1.45;;;;;;;13.18;59.90;99102.00;4468161;31;20439;-91
2023/04/12 08:42:20;;;;;;;4.25;1.40;;;;;;;13.53;59.93;99099.28;4461499;32;20155;-91
2023/04/12 08:44:45;;;;;;;2.45;1.40;;;;;;;13.41;59.91;99097.31;4466504;31;20391;-91
2023/04/12 08:47:10;;;;;;;4.65;1.67;;;;;;;13.63;59.93;99087.37;4483880;32;20460;-93
2023/04/12 08:49:36;;;;;;;4.95;1.80;;;;;;;13.74;59.94;99097.25;4468782;31;20135;-91
2023/04/12 08:52:06;;;;;;;4.15;1.30;;;;;;;13.67;59.93;99094.09;4472157;32;20123;-91
2023/04/12 08:54:32;;;;;;;3.12;1.50;;;;;;;13.76;59.94;99083.16;4466189;31;20073;-91
2023/04/12 08:56:58;;;;;;;2.40;1.87;;;;;;;13.82;59.94;99090.66;4467293;32;20088;-91
2023/04/12 08:59:26;;;;;;;3.25;1.80;;;;;;;13.85;59.94;99076.56;4470462;31;20100;-91
2023/04/12 09:01:51;;;;;;;3.65;1.45;;;;;;;14.11;59.96;99083.78;4461499;31;20101;-91
2023/04/12 09:04:17;;;;;;;3.20;1.52;;;;;;;14.14;59.96;99080.97;4457493;31;20130;-92
2023/04/12 09:06:42;;;;;;;2.95;1.17;;;;;;;14.27;59.97;99075.06;4463650;31;20532;-91
2023/04/12 09:09:08;;;;;;;2.67;1.52;;;;;;;14.31;59.97;99085.25;4462418;31;20127;-92
2023/04/12 09:11:33;;;;;;;2.75;1.33;;;;;;;14.36;59.98;99087.59;4492578;31;20121;-92
2023/04/12 09:13:59;;;;;;;3.28;1.02;;;;;;;14.09;59.96;99090.88;4457106;31;20160;-91
2023/04/12 09:16:38;;;;;;;2.12;1.12;;;;;;;14.19;59.96;99085.94;4477085;31;20100;-94
2023/04/12 09:19:04;;;;;;;2.17;1.00;;;;;;;14.37;59.97;99084.91;4483323;31;20123;-91
2023/04/12 09:21:31;;;;;;;2.87;1.12;;;;;;;14.30;59.96;99077.50;4457197;32;20116;-91
2023/04/12 09:24:12;;;;;;;2.12;1.15;;;;;;;14.33;59.98;99080.78;4458658;32;20117;-91
2023/04/12 09:26:37;;;;;;;2.30;1.02;;;;;;;14.36;59.98;99077.13;4465610;31;20084;-91
2023/04/12 09:29:03;;;;;;;4.65;1.10;;;;;;;14.45;59.98;99074.03;4457505;32;20137;-92
2023/04/12 09:31:29;;;;;;;3.20;1.48;;;;;;;14.52;59.99;99072.72;4466998;31;20113;-91
2023/04/12 09:34:14;;;;;;;2.75;1.00;;;;;;;14.42;59.98;99061.91;4469657;32;20112;-91
2023/04/12 09:36:40;;;;;;;5.07;0.98;;;;;;;14.53;59.98;99100.59;4470992;31;20143;-93
2023/04/12 09:39:06;;;;;;;2.58;1.10;;;;;;;14.58;59.99;99071.50;4485470;31;25022;-92
2023/04/12 09:41:32;;;;;;;1.52;0.90;;;;;;;14.82;60.00;99064.81;4462242;31;20105;-93
2023/04/12 09:44:00;;;;;;;2.90;1.40;;;;;;;15.00;60.01;99063.69;4470116;32;20147;-92
2023/04/12 09:46:25;;;;;;;1.62;1.12;;;;;;;15.08;60.01;99051.91;4466524;31;20119;-93
2023/04/12 09:48:52;;;;;;;2.60;1.00;;;;;;;15.07;60.01;99052.84;4458128;32;20439;-91
2023/04/12 09:51:27;;;;;;;4.78;1.00;;;;;;;15.03;60.01;99053.03;4469491;31;20135;-93
2023/04/12 09:53:53;;;;;;;3.08;1.12;;;;;;;15.27;60.03;99047.22;4460498;32;20124;-93
2023/04/12 09:56:19;;;;;;;6.43;1.48;;;;;;;15.02;60.00;99053.12;4460372;32;20147;-91
2023/04/12 09:58:44;;;;;;;3.67;1.15;;;;;;;15.16;60.03;99045.28;4465221;31;20116;-92
2023/04/12 10:01:10;;;;;;;4.50;1.10;;;;;;;15.41;60.04;99043.72;4471557;31;20234;-92
2023/04/12 10:03:35;;;;;;;15.30;1.80;;;;;;;15.55;60.05;99035.81;4459106;32;20444;-91
2023/04/12 10:06:02;;;;;;;2.75;0.90;;;;;;;15.54;60.03;99045.47;4458866;31;20136;-92
2023/04/12 10:08:28;;;;;;;3.58;1.27;;;;;;;15.64;60.05;99041.37;4466669;31;20532;-91
2023/04/12 10:10:54;;;;;;;4.62;1.37;;;;;;;15.83;60.05;99050.66;4471574;31;20120;-91
2023/04/12 10:13:19;;;;;;;2.15;1.12;;;;;;;15.93;60.07;99046.50;4466548;31;20462;-90
2023/04/12 10:15:45;;;;;;;4.62;1.10;;;;;;;16.06;60.07;99043.91;4474820;31;20080;-91
2023/04/12 10:18:11;;;;;;;2.10;0.85;;;;;;;16.18;60.08;99032.63;4472078;32;20763;-91
2023/04/12 10:20:36;;;;;;;2.60;1.00;;;;;;;16.04;60.07;99036.16;4468900;31;20136;-91
2023/04/12 10:23:01;;;;;;;2.78;1.00;;;;;;;16.08;60.06;99037.62;4458818;32;20088;-91
2023/04/12 10:25:29;;;;;;;2.35;0.90;;;;;;;16.15;60.07;99027.56;4482585;31;20174;-91
2023/04/12 10:27:55;;;;;;;5.03;1.00;;;;;;;16.02;60.07;99024.91;4464506;32;20052;-92
2023/04/12 10:30:22;;;;;;;2.78;1.00;;;;;;;15.95;60.07;99032.34;4461594;31;20173;-92
2023/04/12 10:33:07;;;;;;;4.82;1.20;;;;;;;16.00;60.07;99036.44;4484896;32;20113;-93
2023/04/12 10:35:54;;;;;;;3.03;1.00;;;;;;;16.19;60.08;99032.50;4484560;32;20479;-91
2023/04/12 10:38:20;;;;;;;3.62;1.42;;;;;;;16.47;60.10;99039.38;4486165;31;20787;-91
2023/04/12 10:41:15;;;;;;;3.33;1.55;;;;;;;16.62;60.11;99026.16;4471661;32;20140;-91
2023/04/12 10:43:47;;;;;;;8.70;1.58;;;;;;;16.72;60.11;99020.19;4485238;31;20414;-93
2023/04/12 10:46:45;;;;;;;3.50;0.93;;;;;;;16.82;60.11;99013.38;4472067;32;20119;-93
2023/04/12 10:49:14;;;;;;;2.62;1.10;;;;;;;16.77;60.12;99009.38;4484984;31;20084;-92
2023/04/12 10:52:00;;;;;;;1.08;0.80;;;;;;;16.77;60.11;99012.00;4475611;31;20420;-92
2023/04/12 10:54:25;;;;;;;2.50;0.93;;;;;;;16.89;60.12;99008.53;4491150;31;20661;-93
2023/04/12 10:56:51;;;;;;;1.70;0.90;;;;;;;16.84;60.11;99003.59;4494358;31;20155;-92
2023/04/12 10:59:16;;;;;;;3.17;0.70;;;;;;;16.86;60.11;99001.69;4468773;31;20111;-90
2023/04/12 11:02:07;;;;;;;1.15;0.75;;;;;;;16.77;60.12;98997.06;4460686;32;20096;-91
2023/04/12 11:04:32;;;;;;;2.85;1.00;;;;;;;16.83;60.12;98993.19;4484391;31;20092;-91
2023/04/12 11:07:00;;;;;;;3.33;1.27;;;;;;;17.03;60.13;98979.47;4466097;31;25986;-92
2023/04/12 11:09:33;;;;;;;4.65;1.20;;;;;;;17.09;60.13;98994.00;4460923;31;20163;-92
2023/04/12 11:12:07;;;;;;;3.22;1.05;;;;;;;16.90;60.11;98988.34;4472059;32;20453;-91
2023/04/12 11:14:32;;;;;;;1.83;0.80;;;;;;;16.98;60.12;98983.38;4488781;31;20130;-92
2023/04/12 11:17:07;;;;;;;1.77;1.00;;;;;;;17.06;60.13;98981.91;4490273;31;20131;-91
2023/04/12 11:19:39;;;;;;;1.70;0.80;;;;;;;17.28;60.14;98978.59;4487212;31;20164;-92
2023/04/12 11:22:11;;;;;;;2.45;0.85;;;;;;;17.48;60.15;98974.50;4471529;31;20149;-91
2023/04/12 11:24:43;;;;;;;3.20;1.08;;;;;;;17.42;60.15;98972.31;4471955;32;20160;-92
2023/04/12 11:27:08;;;;;;;1.17;0.70;;;;;;;17.34;60.14;98983.41;4468832;31;20500;-94
2023/04/12 11:29:34;;;;;;;5.05;1.05;;;;;;;17.40;60.15;98976.84;4484256;32;20098;-92
2023/04/12 11:32:03;;;;;;;4.30;0.85;;;;;;;17.20;60.13;98965.13;4458760;31;20116;-91
2023/04/12 11:34:33;;;;;;;4.53;1.10;;;;;;;17.27;60.14;98974.28;4459452;32;20111;-93
2023/04/12 11:36:58;;;;;;;1.62;0.95;;;;;;;17.33;60.14;98973.00;4484915;31;20096;-91
2023/04/12 11:39:25;;;;;;;1.30;1.00;;;;;;;17.26;60.14;98961.22;4480272;32;20079;-91